Time;durP1;ratioP1;P1;durP2;ratioP2;P2;SDS_P1;SDS_P2;PMS_P1;PMS_P2;Temp;Humidity;BMP_temperature;BMP_pressure;BME280_temperature;BME280_humidity;BME280_pressure;Samples;Min_cycle;Max_cycle;Signal;HPM_P1;HPM_P2
2021/12/29 00:00:37;;;;;;;0.30;0.10;;;1.10;99.90;;;;;;5069904;28;20235;-85
2021/12/29 00:03:04;;;;;;;0.30;0.20;;;1.10;99.90;;;;;;5054163;28;20262;-86
2021/12/29 00:05:31;;;;;;;0.30;0.20;;;1.10;99.90;;;;;;5069266;28;20201;-85
2021/12/29 00:07:59;;;;;;;0.30;0.10;;;1.00;99.90;;;;;;5069950;28;20203;-86
2021/12/29 00:10:26;;;;;;;0.30;0.10;;;1.00;99.90;;;;;;5068886;28;20256;-84
2021/12/29 00:12:54;;;;;;;0.30;0.10;;;1.00;99.90;;;;;;5070328;28;20239;-85
2021/12/29 00:15:26;;;;;;;0.30;0.10;;;1.00;99.90;;;;;;5070490;28;20287;-86
2021/12/29 00:17:54;;;;;;;0.30;0.30;;;1.00;99.90;;;;;;5069880;28;20198;-86
2021/12/29 00:20:28;;;;;;;0.30;0.10;;;1.00;99.90;;;;;;5067641;28;20595;-88
2021/12/29 00:22:55;;;;;;;0.30;0.10;;;1.00;99.90;;;;;;5054286;28;20211;-86
2021/12/29 00:25:22;;;;;;;0.30;0.20;;;1.00;99.90;;;;;;5066437;28;20198;-86
2021/12/29 00:27:49;;;;;;;0.30;0.10;;;1.00;99.90;;;;;;5067278;28;20271;-86
2021/12/29 00:30:16;;;;;;;0.30;0.10;;;1.00;99.90;;;;;;5059302;28;20313;-86
2021/12/29 00:32:45;;;;;;;0.30;0.20;;;1.10;99.90;;;;;;5065402;28;20201;-84
2021/12/29 00:35:14;;;;;;;2.25;2.15;;;1.10;99.90;;;;;;5066277;28;20216;-87
2021/12/29 00:37:42;;;;;;;0.98;0.80;;;1.00;99.90;;;;;;5069996;28;20280;-85
2021/12/29 00:40:10;;;;;;;0.70;0.70;;;1.10;99.90;;;;;;5069316;28;20847;-84
2021/12/29 00:42:38;;;;;;;0.30;0.10;;;1.10;99.90;;;;;;5067166;28;20199;-85
2021/12/29 00:45:06;;;;;;;0.40;0.30;;;1.20;99.90;;;;;;5069942;28;20504;-86
2021/12/29 00:47:34;;;;;;;0.30;0.10;;;1.20;99.90;;;;;;5070170;28;20199;-85
2021/12/29 00:50:07;;;;;;;0.30;0.10;;;1.20;99.90;;;;;;5070038;28;20273;-85
2021/12/29 00:52:34;;;;;;;0.30;0.10;;;1.20;99.90;;;;;;5063468;28;20283;-86
2021/12/29 00:55:01;;;;;;;0.30;0.10;;;1.30;99.90;;;;;;5066628;28;20199;-85
2021/12/29 00:57:28;;;;;;;0.30;0.20;;;1.30;99.90;;;;;;5061716;28;20204;-85
2021/12/29 00:59:56;;;;;;;0.30;0.20;;;1.30;99.90;;;;;;5069315;28;20194;-85
2021/12/29 01:02:23;;;;;;;0.30;0.10;;;1.40;99.90;;;;;;5068269;28;20249;-85
2021/12/29 01:04:50;;;;;;;0.30;0.17;;;1.30;99.90;;;;;;5065221;28;20200;-84
2021/12/29 01:07:19;;;;;;;0.30;0.10;;;1.40;99.90;;;;;;5069543;28;20198;-85
2021/12/29 01:09:46;;;;;;;0.30;0.10;;;1.40;99.90;;;;;;5066543;28;20483;-85
2021/12/29 01:12:14;;;;;;;0.30;0.10;;;1.50;99.90;;;;;;5070166;28;20258;-85
2021/12/29 01:14:44;;;;;;;0.30;0.20;;;1.40;99.90;;;;;;5068009;28;20638;-84
2021/12/29 01:17:11;;;;;;;0.30;0.10;;;1.50;99.90;;;;;;5076533;28;20204;-85
2021/12/29 01:19:38;;;;;;;0.30;0.20;;;1.50;99.90;;;;;;5091369;28;20224;-86
2021/12/29 01:22:05;;;;;;;0.30;0.10;;;1.50;99.90;;;;;;5084401;28;20196;-84
2021/12/29 01:24:34;;;;;;;0.30;0.10;;;1.60;99.90;;;;;;5087564;28;20236;-84
2021/12/29 01:27:01;;;;;;;0.30;0.10;;;1.70;99.90;;;;;;5068978;28;20208;-86
2021/12/29 01:29:30;;;;;;;0.38;0.28;;;1.70;99.90;;;;;;5067626;28;20228;-85
2021/12/29 01:31:58;;;;;;;0.30;0.20;;;1.80;99.90;;;;;;5067380;28;20236;-85
2021/12/29 01:34:25;;;;;;;0.30;0.20;;;1.80;99.90;;;;;;5065774;28;20225;-85
2021/12/29 01:36:52;;;;;;;1.00;0.90;;;1.90;99.90;;;;;;5052323;28;20201;-84
2021/12/29 01:39:21;;;;;;;0.30;0.20;;;1.90;99.90;;;;;;5057773;28;20547;-85
2021/12/29 01:41:52;;;;;;;0.30;0.10;;;1.90;99.90;;;;;;5069935;28;20467;-86
2021/12/29 01:44:23;;;;;;;0.30;0.10;;;1.90;99.90;;;;;;5066614;28;20650;-86
2021/12/29 01:46:51;;;;;;;0.30;0.10;;;1.90;99.90;;;;;;5067664;28;20450;-85
2021/12/29 01:49:18;;;;;;;0.30;0.10;;;2.10;99.90;;;;;;5063223;28;20479;-85
2021/12/29 01:51:50;;;;;;;0.30;0.23;;;2.10;99.90;;;;;;5065030;28;20528;-85
2021/12/29 01:54:24;;;;;;;0.30;0.10;;;2.20;99.90;;;;;;5074510;28;20722;-84
2021/12/29 01:56:55;;;;;;;0.30;0.20;;;2.20;99.90;;;;;;5075500;28;20464;-85
2021/12/29 01:59:24;;;;;;;0.30;0.10;;;2.20;99.90;;;;;;5076664;28;20450;-85
2021/12/29 02:01:51;;;;;;;0.30;0.15;;;2.20;99.90;;;;;;5075040;28;20466;-85
2021/12/29 02:04:18;;;;;;;0.30;0.23;;;2.40;99.90;;;;;;5073609;28;20246;-86
2021/12/29 02:06:46;;;;;;;0.40;0.20;;;2.40;99.90;;;;;;5075825;28;20501;-86
2021/12/29 02:09:13;;;;;;;0.37;0.20;;;2.50;99.90;;;;;;5075272;28;20988;-85
2021/12/29 02:11:42;;;;;;;0.30;0.10;;;2.50;99.90;;;;;;5074720;28;20562;-84
2021/12/29 02:14:11;;;;;;;0.30;0.10;;;2.60;99.90;;;;;;5074763;28;21004;-85
2021/12/29 02:16:39;;;;;;;0.30;0.10;;;2.80;99.90;;;;;;5075782;28;20492;-85
2021/12/29 02:19:10;;;;;;;0.30;0.10;;;2.90;99.90;;;;;;5073229;28;20439;-86
2021/12/29 02:21:39;;;;;;;0.30;0.20;;;2.90;99.90;;;;;;5075149;28;20857;-85
2021/12/29 02:24:23;;;;;;;0.30;0.10;;;2.90;99.90;;;;;;5074344;28;20454;-86
2021/12/29 02:26:52;;;;;;;0.30;0.10;;;2.90;99.90;;;;;;5074482;28;20498;-87
2021/12/29 02:29:20;;;;;;;0.30;0.10;;;2.90;99.90;;;;;;5068951;28;20460;-85
2021/12/29 02:31:47;;;;;;;0.30;0.10;;;3.00;99.90;;;;;;5056150;28;20441;-85
2021/12/29 02:34:16;;;;;;;0.30;0.10;;;2.90;99.90;;;;;;5066190;28;20505;-86
2021/12/29 02:36:46;;;;;;;0.30;0.10;;;3.00;99.90;;;;;;5074963;28;20497;-85
2021/12/29 02:39:15;;;;;;;0.30;0.10;;;3.10;99.90;;;;;;5074561;28;20487;-87
2021/12/29 02:41:45;;;;;;;0.30;0.10;;;3.20;99.90;;;;;;5071185;28;20439;-86
2021/12/29 02:44:17;;;;;;;0.30;0.10;;;3.30;99.90;;;;;;5074884;28;20450;-85
2021/12/29 02:46:45;;;;;;;0.30;0.10;;;3.40;99.90;;;;;;5074241;28;20562;-85
2021/12/29 02:49:12;;;;;;;0.30;0.20;;;3.40;99.90;;;;;;5075686;28;20444;-86
2021/12/29 02:51:40;;;;;;;0.30;0.10;;;3.40;99.90;;;;;;5074841;28;20497;-85
2021/12/29 02:54:08;;;;;;;0.30;0.10;;;3.40;99.90;;;;;;5084621;28;20484;-86
2021/12/29 02:56:35;;;;;;;0.30;0.10;;;3.50;99.90;;;;;;5100293;28;20481;-87
2021/12/29 02:59:03;;;;;;;0.30;0.20;;;3.60;99.90;;;;;;5092297;28;20451;-86
2021/12/29 03:01:31;;;;;;;0.30;0.10;;;3.70;99.90;;;;;;5085480;28;20449;-86
2021/12/29 03:03:59;;;;;;;0.30;0.10;;;3.80;99.90;;;;;;5070650;28;20435;-87
2021/12/29 03:06:27;;;;;;;0.30;0.10;;;3.80;99.90;;;;;;5072916;28;20436;-86
2021/12/29 03:08:54;;;;;;;0.30;0.10;;;3.80;99.90;;;;;;5068521;28;20444;-86
2021/12/29 03:11:23;;;;;;;0.30;0.20;;;3.80;99.90;;;;;;5071800;28;20841;-86
2021/12/29 03:13:50;;;;;;;0.30;0.10;;;3.90;99.90;;;;;;5071277;28;20497;-86
2021/12/29 03:16:18;;;;;;;0.30;0.10;;;4.00;99.90;;;;;;5068397;28;20440;-86
2021/12/29 03:18:45;;;;;;;0.30;0.10;;;4.00;99.90;;;;;;5065591;28;20474;-86
2021/12/29 03:21:12;;;;;;;0.30;0.10;;;4.10;99.90;;;;;;5068582;28;20436;-85
2021/12/29 03:23:40;;;;;;;0.30;0.13;;;4.30;99.90;;;;;;5071445;28;20484;-86
2021/12/29 03:26:07;;;;;;;0.30;0.10;;;4.40;99.90;;;;;;5069538;28;20467;-86
2021/12/29 03:28:39;;;;;;;0.30;0.10;;;4.40;99.90;;;;;;5070927;28;20974;-85
2021/12/29 03:31:10;;;;;;;0.30;0.20;;;4.50;99.90;;;;;;5066898;28;20476;-86
2021/12/29 03:33:38;;;;;;;0.30;0.10;;;4.60;99.90;;;;;;5059984;28;20443;-86
2021/12/29 03:36:06;;;;;;;0.30;0.10;;;4.70;99.90;;;;;;5070949;28;20460;-85
2021/12/29 03:38:34;;;;;;;0.30;0.10;;;4.80;99.90;;;;;;5071456;28;20548;-86
2021/12/29 03:41:03;;;;;;;1.03;1.03;;;4.80;99.90;;;;;;5070416;28;20859;-86
2021/12/29 03:43:32;;;;;;;0.30;0.10;;;5.00;99.90;;;;;;5067442;28;20449;-86
2021/12/29 03:46:02;;;;;;;0.30;0.10;;;5.10;99.90;;;;;;5071029;28;20458;-85
2021/12/29 03:48:30;;;;;;;0.30;0.10;;;5.10;99.90;;;;;;5068098;28;20506;-85
2021/12/29 03:50:59;;;;;;;0.30;0.10;;;5.10;99.90;;;;;;5068602;28;20487;-85
2021/12/29 03:53:27;;;;;;;0.30;0.10;;;5.20;99.90;;;;;;5071516;28;20452;-85
2021/12/29 03:55:55;;;;;;;0.30;0.10;;;5.20;99.90;;;;;;5067244;28;21019;-85
2021/12/29 03:58:23;;;;;;;0.30;0.10;;;5.30;99.90;;;;;;5063472;28;20529;-85
2021/12/29 04:00:53;;;;;;;0.30;0.10;;;5.30;99.90;;;;;;5056279;28;21547;-86
2021/12/29 04:03:21;;;;;;;1.17;1.10;;;5.30;99.90;;;;;;5062410;28;20862;-86
2021/12/29 04:05:48;;;;;;;0.30;0.10;;;5.20;99.90;;;;;;5066957;28;20486;-85
2021/12/29 04:08:16;;;;;;;0.30;0.20;;;5.20;99.90;;;;;;5068902;28;20440;-86
2021/12/29 04:10:43;;;;;;;0.30;0.10;;;5.20;99.90;;;;;;5069648;28;20519;-86
2021/12/29 04:13:10;;;;;;;0.30;0.10;;;5.10;99.90;;;;;;5070348;28;20510;-87
2021/12/29 04:15:38;;;;;;;0.30;0.20;;;5.00;99.90;;;;;;5069874;28;20938;-87
2021/12/29 04:18:15;;;;;;;0.30;0.10;;;5.00;99.90;;;;;;5070494;28;20440;-85
2021/12/29 04:20:57;;;;;;;0.30;0.10;;;4.90;99.90;;;;;;5068825;28;20526;-85
2021/12/29 04:23:26;;;;;;;0.30;0.10;;;4.90;99.90;;;;;;5069180;28;20487;-85
2021/12/29 04:25:54;;;;;;;0.30;0.10;;;4.90;99.90;;;;;;5070269;28;20443;-86
2021/12/29 04:28:24;;;;;;;0.30;0.10;;;5.00;99.90;;;;;;5071037;28;20436;-86
2021/12/29 04:30:54;;;;;;;0.30;0.10;;;5.10;99.90;;;;;;5077097;28;20487;-85
2021/12/29 04:33:22;;;;;;;0.30;0.10;;;5.10;99.90;;;;;;5090483;28;20424;-86
2021/12/29 04:35:51;;;;;;;0.40;0.20;;;5.10;99.90;;;;;;5079063;28;20460;-85
2021/12/29 04:38:21;;;;;;;0.30;0.20;;;5.20;99.90;;;;;;5078509;28;20485;-86
2021/12/29 04:40:50;;;;;;;0.30;0.10;;;5.30;99.90;;;;;;5073159;28;20502;-87
2021/12/29 04:43:17;;;;;;;0.30;0.10;;;5.40;99.90;;;;;;5064398;28;20820;-86
2021/12/29 04:45:45;;;;;;;0.30;0.10;;;5.50;99.90;;;;;;5071148;28;20436;-85
2021/12/29 04:48:13;;;;;;;0.30;0.10;;;5.40;99.90;;;;;;5064891;28;20957;-86
2021/12/29 04:50:42;;;;;;;0.30;0.20;;;5.50;99.90;;;;;;5068022;28;20877;-86
2021/12/29 04:53:11;;;;;;;0.30;0.10;;;5.50;99.90;;;;;;5069410;28;20454;-85
2021/12/29 04:55:39;;;;;;;0.30;0.10;;;5.50;99.90;;;;;;5070189;28;20436;-86
2021/12/29 04:58:06;;;;;;;0.30;0.10;;;5.50;99.90;;;;;;5062973;28;20441;-86
2021/12/29 05:00:34;;;;;;;0.30;0.10;;;5.50;99.90;;;;;;5064412;28;20930;-87
2021/12/29 05:03:01;;;;;;;0.30;0.10;;;5.50;99.90;;;;;;5065564;28;20510;-85
2021/12/29 05:05:52;;;;;;;0.30;0.10;;;5.50;99.90;;;;;;5054066;28;20440;-87
2021/12/29 05:08:28;;;;;;;0.30;0.10;;;5.40;99.90;;;;;;5060473;28;20464;-86
2021/12/29 05:10:58;;;;;;;0.30;0.10;;;5.40;99.90;;;;;;5066454;28;20488;-86
2021/12/29 05:13:26;;;;;;;2.03;0.57;;;5.40;99.90;;;;;;5068159;28;20505;-86
2021/12/29 05:15:55;;;;;;;0.30;0.10;;;5.40;99.90;;;;;;5055060;28;20955;-88
2021/12/29 05:18:22;;;;;;;0.30;0.10;;;5.40;99.90;;;;;;5064643;28;20922;-86
2021/12/29 05:20:49;;;;;;;0.30;0.10;;;5.50;99.90;;;;;;5067627;28;20497;-85
2021/12/29 05:23:16;;;;;;;0.30;0.10;;;5.50;99.90;;;;;;5068716;28;20501;-86
2021/12/29 05:25:45;;;;;;;0.30;0.10;;;5.50;99.90;;;;;;5068988;28;20501;-86
2021/12/29 05:28:12;;;;;;;0.37;0.20;;;5.60;99.90;;;;;;5061782;28;20502;-86
2021/12/29 05:30:39;;;;;;;0.30;0.10;;;5.60;99.90;;;;;;5063131;28;20479;-86
2021/12/29 05:33:06;;;;;;;0.30;0.10;;;5.60;99.90;;;;;;5065487;28;20464;-86
2021/12/29 05:35:34;;;;;;;0.30;0.10;;;5.60;99.90;;;;;;5066340;28;20487;-87
2021/12/29 05:38:01;;;;;;;0.30;0.10;;;5.60;99.90;;;;;;5066434;28;20447;-85
2021/12/29 05:40:29;;;;;;;0.30;0.10;;;5.60;99.90;;;;;;5068467;28;20806;-86
2021/12/29 05:42:58;;;;;;;0.30;0.10;;;5.70;99.90;;;;;;5063459;28;20437;-85
2021/12/29 05:45:27;;;;;;;0.30;0.10;;;5.70;99.90;;;;;;5052439;28;20457;-87
2021/12/29 05:47:55;;;;;;;0.30;0.10;;;5.70;99.90;;;;;;5056846;28;20513;-86
2021/12/29 05:50:25;;;;;;;1.80;0.83;;;5.70;99.90;;;;;;5066931;28;20436;-86
2021/12/29 05:52:53;;;;;;;0.30;0.10;;;5.70;99.90;;;;;;5066572;28;21761;-86
2021/12/29 05:55:20;;;;;;;0.30;0.10;;;5.70;99.90;;;;;;5068604;28;20432;-86
2021/12/29 05:57:47;;;;;;;0.30;0.10;;;5.70;99.90;;;;;;5056499;28;20451;-85
2021/12/29 06:00:19;;;;;;;0.30;0.10;;;5.70;99.90;;;;;;5065355;28;20502;-86
2021/12/29 06:02:46;;;;;;;0.30;0.10;;;5.80;99.90;;;;;;5066573;28;20894;-85
2021/12/29 06:05:14;;;;;;;0.30;0.10;;;5.90;99.90;;;;;;5061741;28;20581;-87
2021/12/29 06:07:41;;;;;;;0.30;0.20;;;5.90;99.90;;;;;;5064048;28;20503;-86
2021/12/29 06:10:10;;;;;;;0.30;0.10;;;5.90;99.90;;;;;;5087352;28;20834;-85
2021/12/29 06:12:37;;;;;;;0.30;0.10;;;5.90;99.90;;;;;;5086169;28;20494;-85
2021/12/29 06:15:05;;;;;;;0.30;0.10;;;5.90;99.90;;;;;;5080433;28;20444;-84
2021/12/29 06:17:33;;;;;;;0.30;0.10;;;5.90;99.90;;;;;;5069533;28;20452;-86
2021/12/29 06:20:00;;;;;;;0.30;0.10;;;6.00;99.90;;;;;;5067006;28;20530;-87
2021/12/29 06:22:27;;;;;;;0.30;0.10;;;6.00;99.90;;;;;;5068814;28;20553;-86
2021/12/29 06:24:54;;;;;;;0.30;0.20;;;6.00;99.90;;;;;;5067749;28;20467;-85
2021/12/29 06:27:22;;;;;;;0.30;0.13;;;6.00;99.90;;;;;;5072959;28;20486;-86
2021/12/29 06:29:50;;;;;;;0.30;0.10;;;6.00;99.90;;;;;;5072258;28;20517;-86
2021/12/29 06:32:17;;;;;;;0.30;0.10;;;6.00;99.90;;;;;;5066665;28;20487;-86
2021/12/29 06:34:46;;;;;;;0.30;0.10;;;6.00;99.90;;;;;;5066197;28;20942;-86
2021/12/29 06:37:13;;;;;;;0.30;0.10;;;6.00;99.90;;;;;;5068951;28;21199;-87
2021/12/29 06:39:41;;;;;;;0.30;0.10;;;6.00;99.90;;;;;;5063805;28;20521;-86
2021/12/29 06:42:08;;;;;;;0.30;0.10;;;6.00;99.90;;;;;;5061749;28;20460;-84
2021/12/29 06:44:35;;;;;;;0.30;0.10;;;6.00;99.90;;;;;;5064936;28;20939;-86
2021/12/29 06:47:02;;;;;;;0.30;0.10;;;6.10;99.90;;;;;;5070207;28;20449;-86
2021/12/29 06:49:30;;;;;;;0.30;0.10;;;6.10;99.90;;;;;;5067606;28;20471;-85
2021/12/29 06:51:58;;;;;;;0.30;0.10;;;6.10;99.90;;;;;;5067579;28;20488;-85
2021/12/29 06:54:25;;;;;;;0.30;0.10;;;6.10;99.90;;;;;;5069274;28;20439;-86
2021/12/29 06:56:52;;;;;;;0.30;0.10;;;6.10;99.90;;;;;;5061974;28;20519;-85
2021/12/29 06:59:19;;;;;;;0.30;0.10;;;6.20;99.90;;;;;;5073129;28;20460;-85
2021/12/29 07:01:46;;;;;;;0.30;0.10;;;6.20;99.90;;;;;;5064336;28;20502;-86
2021/12/29 07:04:13;;;;;;;0.30;0.10;;;6.20;99.90;;;;;;5068256;28;20443;-84
2021/12/29 07:06:40;;;;;;;0.30;0.10;;;6.20;99.90;;;;;;5061647;28;20557;-85
2021/12/29 07:09:09;;;;;;;0.30;0.10;;;6.20;99.90;;;;;;5078115;28;20455;-85
2021/12/29 07:11:37;;;;;;;0.30;0.10;;;6.30;99.90;;;;;;5067544;28;20504;-87
2021/12/29 07:14:05;;;;;;;0.30;0.10;;;6.30;99.90;;;;;;5064259;28;20552;-86
2021/12/29 07:16:33;;;;;;;0.30;0.10;;;6.40;99.90;;;;;;5060980;28;20488;-86
2021/12/29 07:19:00;;;;;;;0.53;0.40;;;6.40;99.90;;;;;;5085709;28;20832;-86
2021/12/29 07:21:27;;;;;;;0.30;0.10;;;6.40;99.90;;;;;;5081041;28;20471;-85
2021/12/29 07:23:55;;;;;;;0.30;0.10;;;6.40;99.90;;;;;;5087325;28;20929;-86
2021/12/29 07:26:23;;;;;;;0.30;0.10;;;6.50;99.90;;;;;;5090732;28;20443;-85
2021/12/29 07:28:52;;;;;;;0.30;0.10;;;6.50;99.90;;;;;;5071766;28;20517;-85
2021/12/29 07:31:19;;;;;;;0.30;0.10;;;6.50;99.90;;;;;;5066587;28;20564;-85
2021/12/29 07:33:47;;;;;;;0.30;0.10;;;6.50;99.90;;;;;;5059890;28;20457;-85
2021/12/29 07:36:14;;;;;;;0.30;0.20;;;6.50;99.90;;;;;;5061446;28;20457;-84
2021/12/29 07:38:42;;;;;;;0.30;0.10;;;6.50;99.90;;;;;;5082151;28;21261;-86
2021/12/29 07:41:10;;;;;;;0.30;0.10;;;6.50;99.90;;;;;;5072708;28;20456;-85
2021/12/29 07:43:39;;;;;;;0.30;0.10;;;6.50;99.90;;;;;;5081258;28;20439;-85
2021/12/29 07:46:07;;;;;;;0.30;0.10;;;6.50;99.90;;;;;;5091331;28;20453;-85
2021/12/29 07:48:35;;;;;;;0.30;0.10;;;6.50;99.90;;;;;;5102960;28;20463;-84
2021/12/29 07:51:04;;;;;;;0.30;0.10;;;6.60;99.90;;;;;;5091104;28;20433;-84
2021/12/29 07:53:31;;;;;;;0.30;0.10;;;6.50;99.90;;;;;;5094371;28;20470;-84
2021/12/29 07:55:58;;;;;;;0.30;0.10;;;6.50;99.90;;;;;;5061985;28;20478;-85
2021/12/29 07:58:25;;;;;;;0.30;0.10;;;6.50;99.90;;;;;;5065084;28;20455;-84
2021/12/29 08:00:54;;;;;;;0.30;0.10;;;6.60;99.90;;;;;;5071865;28;20521;-85
2021/12/29 08:03:22;;;;;;;0.30;0.13;;;6.50;99.90;;;;;;5062890;28;20514;-86
2021/12/29 08:05:49;;;;;;;0.40;0.30;;;6.50;99.90;;;;;;5063244;28;20694;-86
2021/12/29 08:08:16;;;;;;;0.30;0.10;;;6.50;99.90;;;;;;5061127;28;21133;-85
2021/12/29 08:10:43;;;;;;;0.30;0.10;;;6.50;99.90;;;;;;5065113;28;20988;-85
2021/12/29 08:13:10;;;;;;;0.30;0.10;;;6.50;99.90;;;;;;5069012;28;20477;-85
2021/12/29 08:15:38;;;;;;;0.30;0.10;;;6.40;99.90;;;;;;5060667;28;20484;-87
2021/12/29 08:18:06;;;;;;;0.30;0.20;;;6.50;99.90;;;;;;5064115;28;20452;-86
2021/12/29 08:20:35;;;;;;;0.30;0.10;;;6.50;99.90;;;;;;5070833;28;20497;-86
2021/12/29 08:23:03;;;;;;;0.30;0.20;;;6.50;99.90;;;;;;5068047;28;20854;-85
2021/12/29 08:25:31;;;;;;;0.30;0.20;;;6.40;99.90;;;;;;5063697;28;20452;-85
2021/12/29 08:27:58;;;;;;;0.30;0.10;;;6.40;99.90;;;;;;5071216;28;20472;-87
2021/12/29 08:30:25;;;;;;;0.30;0.10;;;6.40;99.90;;;;;;5072716;28;20448;-87
2021/12/29 08:32:53;;;;;;;0.30;0.13;;;6.50;99.90;;;;;;5069685;28;20978;-89
2021/12/29 08:35:21;;;;;;;0.30;0.10;;;6.50;99.90;;;;;;5070126;28;20485;-86
2021/12/29 08:37:49;;;;;;;0.30;0.10;;;6.50;99.90;;;;;;5072894;28;21154;-86
2021/12/29 08:40:16;;;;;;;0.30;0.10;;;6.50;99.90;;;;;;5090923;28;20464;-86
2021/12/29 08:42:44;;;;;;;0.30;0.10;;;6.50;99.90;;;;;;5078158;28;20833;-87
2021/12/29 08:45:13;;;;;;;0.30;0.10;;;6.50;99.90;;;;;;5068645;28;20468;-86
2021/12/29 08:47:41;;;;;;;0.30;0.20;;;6.50;99.90;;;;;;5074561;28;20459;-87
2021/12/29 08:50:12;;;;;;;0.30;0.10;;;6.60;99.90;;;;;;5072604;28;20442;-88
2021/12/29 08:52:41;;;;;;;0.40;0.20;;;6.50;99.90;;;;;;5082823;28;20484;-86
2021/12/29 08:55:12;;;;;;;0.30;0.20;;;6.50;99.90;;;;;;5081664;28;20511;-87
2021/12/29 08:57:39;;;;;;;0.30;0.10;;;6.50;99.90;;;;;;5073201;28;20476;-87
2021/12/29 09:00:08;;;;;;;0.30;0.10;;;6.50;99.90;;;;;;5081698;28;20465;-86
2021/12/29 09:02:35;;;;;;;0.30;0.10;;;6.50;99.90;;;;;;5089227;28;20439;-86
2021/12/29 09:05:03;;;;;;;0.40;0.20;;;6.60;99.90;;;;;;5063518;28;21059;-85
2021/12/29 09:07:30;;;;;;;0.30;0.10;;;6.60;99.90;;;;;;5069436;28;20456;-87
2021/12/29 09:09:58;;;;;;;0.30;0.10;;;6.60;99.90;;;;;;5069238;28;20443;-87
2021/12/29 09:12:25;;;;;;;0.30;0.10;;;6.60;99.90;;;;;;5070085;28;20570;-88
2021/12/29 09:14:52;;;;;;;0.50;0.50;;;6.70;99.90;;;;;;5068898;28;20934;-85
2021/12/29 09:17:19;;;;;;;0.30;0.10;;;6.70;99.90;;;;;;5070287;28;20525;-86
2021/12/29 09:19:47;;;;;;;0.30;0.10;;;6.70;99.90;;;;;;5070052;28;20598;-87
2021/12/29 09:22:14;;;;;;;0.30;0.10;;;6.70;99.90;;;;;;5069625;28;20495;-85
2021/12/29 09:24:43;;;;;;;0.40;0.33;;;6.80;99.90;;;;;;5095100;28;20473;-87
2021/12/29 09:27:11;;;;;;;0.30;0.10;;;6.80;99.90;;;;;;5083876;28;20443;-84
2021/12/29 09:29:39;;;;;;;0.30;0.10;;;6.80;99.90;;;;;;5096905;28;20440;-85
2021/12/29 09:32:06;;;;;;;0.30;0.10;;;6.80;99.90;;;;;;5101401;28;20484;-84
2021/12/29 09:34:33;;;;;;;0.30;0.10;;;6.80;99.90;;;;;;5057995;28;20460;-86
2021/12/29 09:37:01;;;;;;;0.30;0.10;;;6.80;99.90;;;;;;5071400;28;20443;-86
2021/12/29 09:39:28;;;;;;;0.30;0.10;;;6.80;99.90;;;;;;5065074;28;20492;-88
2021/12/29 09:41:55;;;;;;;0.30;0.10;;;6.80;99.90;;;;;;5050900;28;20448;-87
2021/12/29 09:44:24;;;;;;;0.30;0.10;;;6.80;99.90;;;;;;5054541;28;20502;-88
2021/12/29 09:46:53;;;;;;;0.30;0.10;;;6.80;99.90;;;;;;5049320;28;20440;-88
2021/12/29 09:49:21;;;;;;;0.30;0.10;;;6.80;99.90;;;;;;5064291;28;20463;-85
2021/12/29 09:51:50;;;;;;;0.30;0.10;;;6.80;99.90;;;;;;5068857;28;20483;-86
2021/12/29 09:54:17;;;;;;;0.30;0.10;;;6.80;99.90;;;;;;5069129;28;20444;-86
2021/12/29 09:56:44;;;;;;;0.30;0.10;;;6.90;99.90;;;;;;5070011;28;20811;-85
2021/12/29 09:59:11;;;;;;;0.30;0.10;;;6.90;99.90;;;;;;5068384;28;20457;-85
2021/12/29 10:01:39;;;;;;;0.30;0.10;;;6.90;99.90;;;;;;5069426;28;20444;-86
2021/12/29 10:04:07;;;;;;;0.30;0.10;;;6.90;99.90;;;;;;5056987;28;20508;-85
2021/12/29 10:06:34;;;;;;;0.30;0.10;;;6.90;99.90;;;;;;5049311;28;20453;-86
2021/12/29 10:09:11;;;;;;;0.30;0.10;;;6.80;99.90;;;;;;5064594;28;20463;-84
2021/12/29 10:11:38;;;;;;;0.30;0.10;;;6.80;99.90;;;;;;5067944;28;20944;-87
2021/12/29 10:14:09;;;;;;;0.30;0.10;;;6.80;99.90;;;;;;5071401;28;20487;-87
2021/12/29 10:16:37;;;;;;;0.30;0.10;;;6.80;99.90;;;;;;5072193;28;20467;-85
2021/12/29 10:19:08;;;;;;;0.30;0.10;;;6.80;99.90;;;;;;5073583;28;20485;-87
2021/12/29 10:21:36;;;;;;;0.30;0.10;;;6.90;99.90;;;;;;5071528;28;20464;-86
2021/12/29 10:24:04;;;;;;;0.30;0.10;;;6.90;99.90;;;;;;5070647;28;20444;-85
2021/12/29 10:26:33;;;;;;;0.30;0.10;;;6.90;99.90;;;;;;5072016;28;20993;-85
2021/12/29 10:29:03;;;;;;;0.30;0.10;;;7.00;99.90;;;;;;5072651;28;20492;-85
2021/12/29 10:31:32;;;;;;;0.30;0.13;;;7.00;99.90;;;;;;5068502;28;20863;-85
2021/12/29 10:34:02;;;;;;;0.30;0.10;;;7.10;99.90;;;;;;5070465;28;20527;-86
2021/12/29 10:36:32;;;;;;;0.30;0.10;;;7.00;99.90;;;;;;5071421;28;20513;-86
2021/12/29 10:39:05;;;;;;;0.30;0.10;;;7.10;99.90;;;;;;5075914;28;20532;-86
2021/12/29 10:41:42;;;;;;;0.30;0.10;;;7.10;99.90;;;;;;5068311;28;20998;-86
2021/12/29 10:44:10;;;;;;;0.30;0.10;;;7.20;99.90;;;;;;5082578;28;20483;-85
2021/12/29 10:46:37;;;;;;;0.30;0.20;;;7.20;99.90;;;;;;5072538;28;20955;-86
2021/12/29 10:49:07;;;;;;;0.30;0.10;;;7.20;99.90;;;;;;5076165;28;20881;-85
2021/12/29 10:51:37;;;;;;;0.30;0.10;;;7.20;99.90;;;;;;5077280;28;20502;-85
2021/12/29 10:54:09;;;;;;;0.30;0.10;;;7.20;99.90;;;;;;5073495;28;20964;-86
2021/12/29 10:56:37;;;;;;;0.30;0.10;;;7.20;99.90;;;;;;5071512;28;20938;-84
2021/12/29 10:59:30;;;;;;;0.30;0.10;;;7.20;99.90;;;;;;5084385;28;21015;-86
2021/12/29 11:01:59;;;;;;;0.30;0.10;;;7.20;99.90;;;;;;5097295;28;20512;-86
2021/12/29 11:04:26;;;;;;;0.30;0.10;;;7.20;99.90;;;;;;5096972;28;20469;-85
2021/12/29 11:06:57;;;;;;;0.30;0.10;;;7.20;99.90;;;;;;5092202;28;20469;-85
2021/12/29 11:09:28;;;;;;;0.30;0.20;;;7.30;99.90;;;;;;5080894;28;20942;-86
2021/12/29 11:11:56;;;;;;;0.30;0.10;;;7.20;99.90;;;;;;5072925;28;20513;-86
2021/12/29 11:14:26;;;;;;;0.30;0.10;;;7.30;99.90;;;;;;5081652;28;20509;-85
2021/12/29 11:17:05;;;;;;;0.30;0.17;;;7.40;99.90;;;;;;5087046;28;20512;-84
2021/12/29 11:19:33;;;;;;;0.30;0.10;;;7.40;99.90;;;;;;5089191;28;20595;-85
2021/12/29 11:22:12;;;;;;;0.30;0.20;;;7.50;99.90;;;;;;5069185;28;20571;-86
2021/12/29 11:24:41;;;;;;;0.30;0.10;;;7.50;99.90;;;;;;5084609;28;20612;-86
2021/12/29 11:27:13;;;;;;;0.30;0.10;;;7.50;99.90;;;;;;5071206;28;20691;-86
2021/12/29 11:29:51;;;;;;;0.30;0.10;;;7.60;99.90;;;;;;5075498;28;20452;-87
2021/12/29 11:32:26;;;;;;;0.30;0.30;;;7.70;99.90;;;;;;5074460;28;20476;-85
2021/12/29 11:35:09;;;;;;;0.30;0.10;;;7.70;99.90;;;;;;5063559;28;20815;-85
2021/12/29 11:37:40;;;;;;;0.30;0.10;;;7.80;99.90;;;;;;5061003;28;20460;-86
2021/12/29 11:40:09;;;;;;;0.30;0.10;;;7.80;99.90;;;;;;5060894;28;20490;-85
2021/12/29 11:42:36;;;;;;;0.30;0.13;;;7.80;99.90;;;;;;5064324;28;20479;-85
2021/12/29 11:45:05;;;;;;;0.30;0.20;;;7.80;99.90;;;;;;5062155;28;20475;-86
2021/12/29 11:47:32;;;;;;;0.30;0.20;;;7.80;99.90;;;;;;5070976;28;20444;-85
2021/12/29 11:50:00;;;;;;;0.30;0.10;;;7.90;99.90;;;;;;5051582;28;20475;-84
2021/12/29 11:52:43;;;;;;;0.30;0.20;;;7.90;99.90;;;;;;5058404;28;20483;-86
2021/12/29 11:55:14;;;;;;;0.30;0.10;;;7.90;99.90;;;;;;5077638;28;20448;-85
2021/12/29 11:57:42;;;;;;;0.30;0.20;;;7.90;99.90;;;;;;5077383;28;20462;-85
2021/12/29 12:00:13;;;;;;;0.30;0.10;;;7.90;99.90;;;;;;5066058;28;20721;-87
2021/12/29 12:02:41;;;;;;;0.30;0.10;;;7.90;99.90;;;;;;5071354;28;20450;-84
2021/12/29 12:05:10;;;;;;;0.30;0.17;;;8.00;99.90;;;;;;5070969;28;20460;-85
2021/12/29 12:07:40;;;;;;;0.30;0.10;;;7.90;99.90;;;;;;5079390;28;20437;-85
2021/12/29 12:10:12;;;;;;;0.30;0.10;;;7.90;99.90;;;;;;5070065;28;20946;-85
2021/12/29 12:12:41;;;;;;;0.30;0.10;;;7.90;99.90;;;;;;5076943;28;20791;-85
2021/12/29 12:15:10;;;;;;;0.50;0.50;;;7.80;99.90;;;;;;5070031;28;20972;-84
2021/12/29 12:17:39;;;;;;;0.30;0.10;;;7.80;99.90;;;;;;5074347;28;20487;-86
2021/12/29 12:20:10;;;;;;;0.30;0.10;;;7.80;99.90;;;;;;5077985;28;21208;-85
2021/12/29 12:22:48;;;;;;;0.30;0.10;;;7.80;99.90;;;;;;5072201;28;20495;-85
2021/12/29 12:25:19;;;;;;;0.30;0.10;;;7.70;99.90;;;;;;5069094;28;20447;-85
2021/12/29 12:27:48;;;;;;;0.30;0.10;;;7.70;99.90;;;;;;5068273;28;20798;-85
2021/12/29 12:30:18;;;;;;;0.30;0.10;;;7.80;99.90;;;;;;5068481;28;20999;-87
2021/12/29 12:32:47;;;;;;;0.30;0.10;;;7.80;99.90;;;;;;5068832;28;20973;-85
2021/12/29 12:35:27;;;;;;;0.30;0.10;;;7.90;99.90;;;;;;5073116;28;20530;-85
2021/12/29 12:37:56;;;;;;;0.30;0.10;;;7.90;99.90;;;;;;5094195;28;20576;-84
2021/12/29 12:40:25;;;;;;;0.30;0.20;;;8.00;99.90;;;;;;5082267;28;20447;-84
2021/12/29 12:43:03;;;;;;;0.30;0.10;;;7.90;99.90;;;;;;5078936;28;20447;-88
2021/12/29 12:45:34;;;;;;;0.30;0.10;;;8.00;99.90;;;;;;5085499;28;20551;-86
2021/12/29 12:48:06;;;;;;;0.30;0.10;;;8.00;99.90;;;;;;5064466;28;20932;-85
2021/12/29 12:50:34;;;;;;;0.30;0.10;;;7.90;99.90;;;;;;5064804;28;20440;-87
2021/12/29 12:53:04;;;;;;;0.30;0.20;;;7.90;99.90;;;;;;5065123;28;20595;-87
2021/12/29 12:55:41;;;;;;;0.30;0.10;;;7.80;99.90;;;;;;5070067;28;20930;-88
2021/12/29 12:58:10;;;;;;;0.30;0.10;;;7.80;99.90;;;;;;5077331;28;20508;-88
2021/12/29 13:00:41;;;;;;;0.30;0.20;;;7.70;99.90;;;;;;5080587;28;20882;-87
2021/12/29 13:03:08;;;;;;;0.30;0.10;;;7.60;99.90;;;;;;5085058;28;20523;-85
2021/12/29 13:05:39;;;;;;;0.30;0.10;;;7.60;99.90;;;;;;5065917;28;20454;-87